createdAt,value
2019-03-27T00:01:15.034Z,95.00
2019-03-27T00:03:16.174Z,95.20
2019-03-27T00:05:17.339Z,94.90
2019-03-27T00:07:19.316Z,95.10
2019-03-27T00:09:20.454Z,95.00
2019-03-27T00:11:21.675Z,95.00
2019-03-27T00:13:22.917Z,95.20
2019-03-27T00:15:24.363Z,95.10
2019-03-27T00:17:25.526Z,94.60
2019-03-27T00:19:26.747Z,94.70
2019-03-27T00:21:27.995Z,94.80
2019-03-27T00:23:29.155Z,94.60
2019-03-27T00:25:30.670Z,94.60
2019-03-27T00:27:31.923Z,94.70
2019-03-27T00:29:33.458Z,94.40
2019-03-27T00:31:34.668Z,94.40
2019-03-27T00:33:35.828Z,94.50
2019-03-27T00:35:36.970Z,94.50
2019-03-27T00:37:38.132Z,94.60
2019-03-27T00:39:39.271Z,94.80
2019-03-27T00:41:40.432Z,94.60
2019-03-27T00:43:41.687Z,94.60
2019-03-27T00:45:42.879Z,94.70
2019-03-27T00:47:44.122Z,94.90
2019-03-27T00:49:45.262Z,94.90
2019-03-27T00:51:46.534Z,94.70
2019-03-27T00:53:47.682Z,94.20
2019-03-27T00:55:49.223Z,94.20
2019-03-27T00:57:50.375Z,94.50
2019-03-27T00:59:51.525Z,93.80
2019-03-27T01:01:52.678Z,94.00
2019-03-27T01:03:53.826Z,93.70
2019-03-27T01:05:54.971Z,94.00
2019-03-27T01:07:56.127Z,94.20
2019-03-27T01:09:57.275Z,94.10
2019-03-27T01:11:59.344Z,94.20
2019-03-27T01:14:00.770Z,94.90
2019-03-27T01:16:02.028Z,94.60
2019-03-27T01:18:03.683Z,94.20
2019-03-27T01:20:05.429Z,94.40
2019-03-27T01:22:06.479Z,95.20
2019-03-27T01:24:07.703Z,95.00
2019-03-27T01:26:09.294Z,95.30
2019-03-27T01:28:10.894Z,95.30
2019-03-27T01:30:13.135Z,95.50
2019-03-27T01:32:14.418Z,95.50
2019-03-27T01:34:15.574Z,95.40
2019-03-27T01:36:17.571Z,95.50
2019-03-27T01:38:19.278Z,95.50
2019-03-27T01:40:20.974Z,95.60
2019-03-27T01:42:22.335Z,95.20
2019-03-27T01:44:24.193Z,95.00
2019-03-27T01:46:25.505Z,94.40
2019-03-27T01:48:26.732Z,93.80
2019-03-27T01:50:27.883Z,93.60
2019-03-27T01:52:29.051Z,93.30
2019-03-27T01:54:30.698Z,93.10
2019-03-27T01:56:31.734Z,93.00
2019-03-27T01:58:32.888Z,93.00
2019-03-27T02:00:34.036Z,93.20
2019-03-27T02:02:35.194Z,93.40
2019-03-27T02:04:36.650Z,93.70
2019-03-27T02:06:37.793Z,94.00
2019-03-27T02:08:39.342Z,94.40
2019-03-27T02:10:40.787Z,94.80
2019-03-27T02:12:41.947Z,94.80
2019-03-27T02:14:43.081Z,94.90
2019-03-27T02:16:44.785Z,95.10
2019-03-27T02:18:46.881Z,94.80
2019-03-27T02:20:48.002Z,94.70
2019-03-27T02:22:49.776Z,94.70
2019-03-27T02:24:51.523Z,94.60
2019-03-27T02:26:52.564Z,94.40
2019-03-27T02:28:53.831Z,94.50
2019-03-27T02:30:55.339Z,94.80
2019-03-27T02:32:56.595Z,95.20
2019-03-27T02:34:58.171Z,95.00
2019-03-27T02:36:59.362Z,95.00
2019-03-27T02:39:00.636Z,94.50
2019-03-27T02:41:01.976Z,94.20
2019-03-27T02:43:03.528Z,94.40
2019-03-27T02:45:05.103Z,94.50
2019-03-27T02:47:06.257Z,94.30
2019-03-27T02:49:07.412Z,93.80
2019-03-27T02:51:08.563Z,93.90
2019-03-27T02:53:10.050Z,93.80
2019-03-27T02:55:11.415Z,93.60
2019-03-27T02:57:12.570Z,93.30
2019-03-27T02:59:13.819Z,93.20
2019-03-27T03:01:14.983Z,92.90
2019-03-27T03:03:16.157Z,92.60
2019-03-27T03:05:17.298Z,92.60
2019-03-27T03:07:18.446Z,92.50
2019-03-27T03:09:19.589Z,92.80
2019-03-27T03:11:20.730Z,92.60
2019-03-27T03:13:21.882Z,92.20
2019-03-27T03:15:23.325Z,92.30
2019-03-27T03:17:24.514Z,92.90
2019-03-27T03:19:25.668Z,93.70
2019-03-27T03:21:27.094Z,94.10
2019-03-27T03:23:28.241Z,94.20
2019-03-27T03:25:29.385Z,94.20
2019-03-27T03:27:30.861Z,93.70
2019-03-27T03:29:32.182Z,94.30
2019-03-27T03:31:33.342Z,94.40
2019-03-27T03:33:34.675Z,95.00
2019-03-27T03:35:35.910Z,95.00
2019-03-27T03:37:37.461Z,95.40
2019-03-27T03:39:38.845Z,95.80
2019-03-27T03:41:40.603Z,96.70
2019-03-27T03:43:42.210Z,96.50
2019-03-27T03:45:43.674Z,96.90
2019-03-27T03:47:44.911Z,97.30
2019-03-27T03:49:46.068Z,97.50
2019-03-27T03:51:47.584Z,97.60
2019-03-27T03:53:49.085Z,97.50
2019-03-27T03:55:51.216Z,97.50
2019-03-27T03:57:53.454Z,97.50
2019-03-27T03:59:56.451Z,97.50
2019-03-27T04:02:01.678Z,97.50
2019-03-27T04:04:03.628Z,97.10
2019-03-27T04:06:04.936Z,97.00
2019-03-27T04:08:06.191Z,97.10
2019-03-27T04:10:07.566Z,96.80
2019-03-27T04:12:08.910Z,96.70
2019-03-27T04:14:10.520Z,96.10
2019-03-27T04:16:12.186Z,95.60
2019-03-27T04:21:49.358Z,94.10
2019-03-27T04:23:51.835Z,93.50
2019-03-27T04:26:08.941Z,93.30
2019-03-27T04:27:56.127Z,93.70
2019-03-27T04:29:58.855Z,94.00
2019-03-27T04:32:00.112Z,94.10
2019-03-27T04:34:01.880Z,94.70
2019-03-27T04:36:03.719Z,95.00
2019-03-27T04:38:04.986Z,95.50
2019-03-27T04:40:06.442Z,96.00
2019-03-27T04:42:07.582Z,96.50
2019-03-27T04:47:11.031Z,97.30
2019-03-27T04:49:12.528Z,97.70
2019-03-27T04:51:14.029Z,98.20
2019-03-27T04:53:15.836Z,97.90
2019-03-27T04:55:17.357Z,97.90
2019-03-27T04:57:18.503Z,98.00
2019-03-27T04:59:19.755Z,97.90
2019-03-27T05:01:20.898Z,97.80
2019-03-27T05:03:22.179Z,97.80
2019-03-27T05:05:23.706Z,97.70
2019-03-27T05:07:25.159Z,97.60
2019-03-27T05:09:26.321Z,97.70
2019-03-27T05:11:27.463Z,97.80
2019-03-27T05:13:28.616Z,97.60
2019-03-27T05:15:29.771Z,97.40
2019-03-27T05:17:30.922Z,97.50
2019-03-27T05:19:32.087Z,97.60
2019-03-27T05:21:33.238Z,97.80
2019-03-27T05:23:34.389Z,97.90
2019-03-27T05:25:35.808Z,98.00
2019-03-27T05:27:39.103Z,98.00
2019-03-27T05:29:40.254Z,98.20
2019-03-27T05:31:41.733Z,98.10
2019-03-27T05:33:43.248Z,98.10
2019-03-27T05:35:44.486Z,98.20
2019-03-27T05:37:45.635Z,98.10
2019-03-27T05:39:46.786Z,98.60
2019-03-27T05:41:47.934Z,98.10
2019-03-27T05:43:49.074Z,98.00
2019-03-27T05:45:50.267Z,98.00
2019-03-27T05:47:59.593Z,98.00
2019-03-27T05:49:54.534Z,98.00
2019-03-27T05:51:55.710Z,98.00
2019-03-27T05:53:56.941Z,97.90
2019-03-27T05:55:58.136Z,97.80
2019-03-27T05:57:59.696Z,97.80
2019-03-27T06:00:00.998Z,97.80
2019-03-27T06:02:02.143Z,97.80
2019-03-27T06:04:03.410Z,97.80
2019-03-27T06:06:04.546Z,97.70
2019-03-27T06:08:05.700Z,97.50
2019-03-27T06:10:07.152Z,97.10
2019-03-27T06:12:08.305Z,97.60
2019-03-27T06:14:09.458Z,97.50
2019-03-27T06:16:11.175Z,97.50
2019-03-27T06:18:13.523Z,97.30
2019-03-27T06:20:14.889Z,97.20
2019-03-27T06:22:16.072Z,97.20
2019-03-27T06:24:17.246Z,97.00
2019-03-27T06:26:18.479Z,96.90
2019-03-27T06:28:19.954Z,96.80
2019-03-27T06:30:21.614Z,96.70
2019-03-27T06:32:22.652Z,96.90
2019-03-27T06:34:24.198Z,97.00
2019-03-27T06:36:25.338Z,97.00
2019-03-27T06:38:26.887Z,97.00
2019-03-27T06:40:28.051Z,97.00
2019-03-27T06:42:29.195Z,96.70
2019-03-27T06:44:30.454Z,96.30
2019-03-27T06:46:31.615Z,96.30
2019-03-27T06:48:33.198Z,96.20
2019-03-27T06:50:34.395Z,96.60
2019-03-27T06:52:35.881Z,96.00
2019-03-27T06:54:37.058Z,95.90
2019-03-27T06:56:38.199Z,95.80
2019-03-27T06:58:39.354Z,95.90
2019-03-27T07:00:40.543Z,95.90
2019-03-27T07:02:41.695Z,95.50
2019-03-27T07:04:42.859Z,95.70
2019-03-27T07:06:44.002Z,95.80
2019-03-27T07:08:45.199Z,95.80
2019-03-27T07:10:46.364Z,96.10
2019-03-27T07:12:47.546Z,96.10
2019-03-27T07:14:48.706Z,96.00
2019-03-27T07:16:49.873Z,96.10
2019-03-27T07:18:51.095Z,95.90
2019-03-27T07:20:52.352Z,95.90
2019-03-27T07:22:53.584Z,95.90
2019-03-27T07:24:54.744Z,96.00
2019-03-27T07:26:55.963Z,96.00
2019-03-27T07:28:57.130Z,95.90
2019-03-27T07:30:58.288Z,95.70
2019-03-27T07:33:00.116Z,95.50
2019-03-27T07:35:01.380Z,95.60
2019-03-27T07:37:02.902Z,95.10
2019-03-27T07:39:11.028Z,95.10
2019-03-27T07:41:08.188Z,94.90
2019-03-27T07:43:09.370Z,95.00
2019-03-27T07:45:11.252Z,94.70
2019-03-27T07:47:12.411Z,95.00
2019-03-27T07:49:13.654Z,94.90
2019-03-27T07:51:14.816Z,94.30
2019-03-27T07:53:15.966Z,94.40
2019-03-27T07:55:19.592Z,94.10
2019-03-27T07:57:20.332Z,93.90
2019-03-27T07:59:21.475Z,93.90
2019-03-27T08:01:23.021Z,94.10
2019-03-27T08:03:24.066Z,93.80
2019-03-27T08:05:25.422Z,93.80
2019-03-27T08:07:27.304Z,94.00
2019-03-27T08:09:28.630Z,93.70
2019-03-27T08:11:30.379Z,93.90
2019-03-27T08:13:31.758Z,93.50
2019-03-27T08:15:32.902Z,93.80
2019-03-27T08:17:34.466Z,93.40
2019-03-27T08:19:35.982Z,93.40
2019-03-27T08:21:37.127Z,93.80
2019-03-27T08:23:38.627Z,93.30
2019-03-27T08:25:39.774Z,93.50
2019-03-27T08:27:40.909Z,93.30
2019-03-27T08:29:42.109Z,93.10
2019-03-27T08:31:43.597Z,93.20
2019-03-27T08:33:45.249Z,93.20
2019-03-27T08:35:46.269Z,93.20
2019-03-27T08:37:47.407Z,92.60
2019-03-27T08:39:48.541Z,92.70
2019-03-27T08:41:49.694Z,91.70
2019-03-27T08:43:50.926Z,92.50
2019-03-27T08:45:52.085Z,92.50
2019-03-27T08:47:53.257Z,93.00
2019-03-27T08:49:54.397Z,92.00
2019-03-27T08:51:55.622Z,92.00
2019-03-27T08:53:56.840Z,91.40
2019-03-27T08:55:58.022Z,91.00
2019-03-27T08:57:59.233Z,91.50
2019-03-27T09:00:02.632Z,91.30
2019-03-27T09:02:05.432Z,91.40
2019-03-27T09:04:06.845Z,90.30
2019-03-27T09:06:08.398Z,90.80
2019-03-27T09:08:09.551Z,90.90
2019-03-27T09:10:11.496Z,90.90
2019-03-27T09:12:12.645Z,91.00
2019-03-27T09:14:14.082Z,90.70
2019-03-27T09:16:15.634Z,90.30
2019-03-27T09:18:17.081Z,91.00
2019-03-27T09:20:18.293Z,90.30
2019-03-27T09:22:19.446Z,89.70
2019-03-27T09:24:20.587Z,89.10
2019-03-27T09:26:21.741Z,88.00
2019-03-27T09:28:22.961Z,85.80
2019-03-27T09:30:24.507Z,86.50
2019-03-27T09:32:25.810Z,86.00
2019-03-27T09:34:27.324Z,86.50
2019-03-27T09:36:28.573Z,87.10
2019-03-27T09:38:29.735Z,87.20
2019-03-27T09:40:30.893Z,84.00
2019-03-27T09:42:32.394Z,83.80
2019-03-27T09:44:33.552Z,85.00
2019-03-27T09:46:34.996Z,84.90
2019-03-27T09:48:36.534Z,85.80
2019-03-27T09:50:37.686Z,84.90
2019-03-27T09:52:38.852Z,83.90
2019-03-27T09:54:40.104Z,83.20
2019-03-27T09:56:41.322Z,84.10
2019-03-27T09:58:42.517Z,84.70
2019-03-27T10:00:47.489Z,83.80
2019-03-27T10:02:48.643Z,82.50
2019-03-27T10:04:50.157Z,83.40
2019-03-27T10:06:51.703Z,83.80
2019-03-27T10:08:52.849Z,84.60
2019-03-27T10:10:54.300Z,83.00
2019-03-27T10:12:55.575Z,83.60
2019-03-27T10:14:57.396Z,83.20
2019-03-27T10:16:58.568Z,83.90
2019-03-27T10:18:59.751Z,83.80
2019-03-27T10:21:00.918Z,85.80
2019-03-27T10:23:02.083Z,83.80
2019-03-27T10:25:07.046Z,82.30
2019-03-27T10:27:08.331Z,83.20
2019-03-27T10:29:09.483Z,83.40
2019-03-27T10:31:10.636Z,83.80
2019-03-27T10:33:15.036Z,81.50
2019-03-27T10:35:15.242Z,80.80
2019-03-27T10:37:16.408Z,81.50
2019-03-27T10:39:17.567Z,80.70
2019-03-27T10:41:18.723Z,80.70
2019-03-27T10:43:20.142Z,82.20
2019-03-27T10:45:21.294Z,81.80
2019-03-27T10:47:22.797Z,80.20
2019-03-27T10:49:24.033Z,81.60
2019-03-27T10:51:25.194Z,81.00
2019-03-27T10:53:26.354Z,80.30
2019-03-27T10:55:27.863Z,79.80
2019-03-27T10:57:29.411Z,79.20
2019-03-27T10:59:30.960Z,80.10
2019-03-27T11:01:32.105Z,80.90
2019-03-27T11:03:33.369Z,79.60
2019-03-27T11:05:34.992Z,75.30
2019-03-27T11:07:36.150Z,74.50
2019-03-27T11:09:37.367Z,71.80
2019-03-27T11:11:38.818Z,75.50
2019-03-27T11:13:39.999Z,76.60
2019-03-27T11:15:41.153Z,73.80
2019-03-27T11:17:42.319Z,73.40
2019-03-27T11:19:44.490Z,75.00
2019-03-27T11:21:45.891Z,74.20
2019-03-27T11:23:47.070Z,76.00
2019-03-27T11:25:48.222Z,74.40
2019-03-27T11:27:49.436Z,74.10
2019-03-27T11:29:50.618Z,73.90
2019-03-27T11:31:52.056Z,73.40
2019-03-27T11:33:53.331Z,74.40
2019-03-27T11:35:54.575Z,70.90
2019-03-27T11:37:55.818Z,70.00
2019-03-27T11:39:57.534Z,71.70
2019-03-27T11:42:00.795Z,72.00
2019-03-27T11:44:01.992Z,71.50
2019-03-27T11:46:04.026Z,71.30
2019-03-27T11:48:08.062Z,70.30
2019-03-27T11:50:08.842Z,69.80
2019-03-27T11:52:10.095Z,67.60
2019-03-27T11:54:14.534Z,69.40
2019-03-27T11:56:15.818Z,69.20
2019-03-27T11:58:16.994Z,70.20
2019-03-27T12:00:18.427Z,69.90
2019-03-27T12:02:19.887Z,71.30
2019-03-27T12:04:21.033Z,70.40
2019-03-27T12:06:22.187Z,71.90
2019-03-27T12:08:23.346Z,71.50
2019-03-27T12:10:24.539Z,71.20
2019-03-27T12:12:25.710Z,72.30
2019-03-27T12:14:26.885Z,70.00
2019-03-27T12:16:28.040Z,69.10
2019-03-27T12:18:31.894Z,68.50
2019-03-27T12:20:32.382Z,67.80
2019-03-27T12:22:33.534Z,67.50
2019-03-27T12:24:34.692Z,66.40
2019-03-27T12:26:36.180Z,66.70
2019-03-27T12:28:37.413Z,65.90
2019-03-27T12:30:38.545Z,69.10
2019-03-27T12:32:39.794Z,63.00
2019-03-27T12:34:40.954Z,64.00
2019-03-27T12:36:42.109Z,63.50
2019-03-27T12:38:43.267Z,64.90
2019-03-27T12:40:44.637Z,66.40
2019-03-27T12:42:45.863Z,66.10
2019-03-27T12:44:47.018Z,67.40
2019-03-27T12:46:51.717Z,67.80
2019-03-27T12:48:51.530Z,65.60
2019-03-27T12:50:52.770Z,65.80
2019-03-27T12:52:53.909Z,65.30
2019-03-27T12:54:55.085Z,67.70
2019-03-27T12:56:56.316Z,65.10
2019-03-27T12:58:57.569Z,64.50
2019-03-27T13:00:58.771Z,63.90
2019-03-27T13:02:59.918Z,65.50
2019-03-27T13:05:01.382Z,65.00
2019-03-27T13:07:02.625Z,66.60
2019-03-27T13:09:05.788Z,65.80
2019-03-27T13:11:06.942Z,65.60
2019-03-27T13:13:08.222Z,66.40
2019-03-27T13:15:09.424Z,67.20
2019-03-27T13:17:10.886Z,68.10
2019-03-27T13:19:12.142Z,68.20
2019-03-27T13:21:25.529Z,67.00
2019-03-27T13:23:16.337Z,66.10
2019-03-27T13:25:18.714Z,67.50
2019-03-27T13:27:20.562Z,64.50
2019-03-27T13:29:21.823Z,65.90
2019-03-27T13:31:22.971Z,64.90
2019-03-27T13:33:24.102Z,64.80
2019-03-27T13:35:25.261Z,64.70
2019-03-27T13:37:26.393Z,65.10
2019-03-27T13:39:27.810Z,64.30
2019-03-27T13:41:28.958Z,65.70
2019-03-27T13:43:30.093Z,67.70
2019-03-27T13:45:32.659Z,64.80
2019-03-27T13:47:34.434Z,64.80
2019-03-27T13:49:35.470Z,65.50
2019-03-27T13:51:40.872Z,65.80
2019-03-27T13:53:39.670Z,65.20
2019-03-27T13:55:40.836Z,65.00
2019-03-27T13:57:42.264Z,64.90
2019-03-27T13:59:43.413Z,64.60
2019-03-27T14:01:44.550Z,64.30
2019-03-27T14:03:45.698Z,65.50
2019-03-27T14:05:46.858Z,66.00
2019-03-27T14:07:48.089Z,66.00
2019-03-27T14:09:49.334Z,65.60
2019-03-27T14:11:50.557Z,66.20
2019-03-27T14:13:51.692Z,64.70
2019-03-27T14:15:52.845Z,65.30
2019-03-27T14:17:53.988Z,64.90
2019-03-27T14:19:55.235Z,65.20
2019-03-27T14:21:56.432Z,64.90
2019-03-27T14:23:57.569Z,64.80
2019-03-27T14:25:58.766Z,65.10
2019-03-27T14:27:59.909Z,64.50
2019-03-27T14:30:01.074Z,65.80
2019-03-27T14:32:02.215Z,65.70
2019-03-27T14:34:03.348Z,66.50
2019-03-27T14:36:04.599Z,65.90
2019-03-27T14:38:05.763Z,65.70
2019-03-27T14:40:07.436Z,65.90
2019-03-27T14:42:08.462Z,66.90
2019-03-27T14:44:09.697Z,65.50
2019-03-27T14:46:10.848Z,67.50
2019-03-27T14:48:11.985Z,65.60
2019-03-27T14:50:13.530Z,63.90
2019-03-27T14:52:14.671Z,63.30
2019-03-27T14:54:15.836Z,64.20
2019-03-27T14:56:16.986Z,64.30
2019-03-27T14:58:18.178Z,65.70
2019-03-27T15:00:19.438Z,65.80
2019-03-27T15:02:20.583Z,66.70
2019-03-27T15:04:21.924Z,67.00
2019-03-27T15:06:23.246Z,66.70
2019-03-27T15:08:24.397Z,68.10
2019-03-27T15:10:25.651Z,67.40
2019-03-27T15:12:27.112Z,66.10
2019-03-27T15:14:28.277Z,66.60
2019-03-27T15:16:29.528Z,67.70
2019-03-27T15:18:30.703Z,68.20
2019-03-27T15:20:32.258Z,67.80
2019-03-27T15:22:33.702Z,68.40
2019-03-27T15:24:34.853Z,69.00
2019-03-27T15:26:36.004Z,68.50
2019-03-27T15:28:37.147Z,69.60
2019-03-27T15:30:38.293Z,69.00
2019-03-27T15:32:39.549Z,69.80
2019-03-27T15:34:40.762Z,69.60
2019-03-27T15:36:41.917Z,70.20
2019-03-27T15:38:43.066Z,69.90
2019-03-27T15:40:44.833Z,69.60
2019-03-27T15:42:45.941Z,69.80
2019-03-27T15:44:49.733Z,69.70
2019-03-27T15:46:50.405Z,70.20
2019-03-27T15:48:51.590Z,70.70
2019-03-27T15:50:58.479Z,71.40
2019-03-27T15:52:55.795Z,70.60
2019-03-27T15:54:56.962Z,70.90
2019-03-27T15:56:58.103Z,71.00
2019-03-27T15:58:59.257Z,71.80
2019-03-27T16:01:00.633Z,71.40
2019-03-27T16:03:01.865Z,71.60
2019-03-27T16:05:04.710Z,71.50
2019-03-27T16:07:05.870Z,72.00
2019-03-27T16:09:09.153Z,72.20
2019-03-27T16:11:10.428Z,72.30
2019-03-27T16:13:12.562Z,72.60
2019-03-27T16:15:13.938Z,72.30
2019-03-27T16:17:15.093Z,72.60
2019-03-27T16:19:16.515Z,72.00
2019-03-27T16:21:17.673Z,72.50
2019-03-27T16:23:18.813Z,72.50
2019-03-27T16:25:19.961Z,72.80
2019-03-27T16:27:21.131Z,73.40
2019-03-27T16:29:22.383Z,73.00
2019-03-27T16:31:23.547Z,74.20
2019-03-27T16:33:24.810Z,74.00
2019-03-27T16:35:26.025Z,74.50
2019-03-27T16:37:27.179Z,73.70
2019-03-27T16:39:28.391Z,74.30
2019-03-27T16:41:29.551Z,75.30
2019-03-27T16:43:30.702Z,74.90
2019-03-27T16:45:31.953Z,74.30
2019-03-27T16:47:33.240Z,74.70
2019-03-27T16:49:34.674Z,74.20
2019-03-27T16:51:35.918Z,75.00
2019-03-27T16:53:37.084Z,75.40
2019-03-27T16:55:38.327Z,75.40
2019-03-27T16:57:39.482Z,75.10
2019-03-27T16:59:40.702Z,75.40
2019-03-27T17:01:41.953Z,75.40
2019-03-27T17:03:43.173Z,75.40
2019-03-27T17:05:53.833Z,75.90
2019-03-27T17:07:47.373Z,76.00
2019-03-27T17:09:48.529Z,75.60
2019-03-27T17:11:49.881Z,76.10
2019-03-27T17:13:51.149Z,76.90
2019-03-27T17:15:52.350Z,76.50
2019-03-27T17:17:53.590Z,77.00
2019-03-27T17:19:54.801Z,77.30
2019-03-27T17:21:55.986Z,77.90
2019-03-27T17:23:57.243Z,77.90
2019-03-27T17:25:58.556Z,77.70
2019-03-27T17:27:59.833Z,77.70
2019-03-27T17:30:01.154Z,77.50
2019-03-27T17:32:02.517Z,77.80
2019-03-27T17:34:03.726Z,77.40
2019-03-27T17:36:04.997Z,77.10
2019-03-27T17:38:06.235Z,77.70
2019-03-27T17:40:07.585Z,77.70
2019-03-27T17:42:08.749Z,77.80
2019-03-27T17:44:09.953Z,77.70
2019-03-27T17:46:11.122Z,77.30
2019-03-27T17:48:12.359Z,77.70
2019-03-27T17:50:14.033Z,77.30
2019-03-27T17:52:15.243Z,77.60
2019-03-27T17:54:20.765Z,77.60
2019-03-27T17:56:19.490Z,77.80
2019-03-27T17:58:20.709Z,78.00
2019-03-27T18:00:39.997Z,77.80
2019-03-27T18:02:41.153Z,78.20
2019-03-27T18:04:42.323Z,78.90
2019-03-27T18:06:43.497Z,78.20
2019-03-27T18:08:44.662Z,78.50
2019-03-27T18:10:45.970Z,78.50
2019-03-27T18:12:47.206Z,78.40
2019-03-27T18:14:48.352Z,78.30
2019-03-27T18:16:49.598Z,78.60
2019-03-27T18:18:50.840Z,78.40
2019-03-27T18:20:52.217Z,78.60
2019-03-27T18:22:53.425Z,78.70
2019-03-27T18:24:54.575Z,78.50
2019-03-27T18:26:55.721Z,78.80
2019-03-27T18:28:57.110Z,78.50
2019-03-27T18:30:58.323Z,78.90
2019-03-27T18:32:59.466Z,80.10
2019-03-27T18:35:00.605Z,79.00
2019-03-27T18:37:01.758Z,79.20
2019-03-27T18:39:06.091Z,78.80
2019-03-27T18:41:07.329Z,78.70
2019-03-27T18:43:08.593Z,78.50
2019-03-27T18:45:10.141Z,78.80
2019-03-27T18:47:11.279Z,79.30
2019-03-27T18:49:12.440Z,79.30
2019-03-27T18:51:13.677Z,79.70
2019-03-27T18:53:14.886Z,79.00
2019-03-27T18:55:25.735Z,79.00
2019-03-27T18:57:19.199Z,79.10
2019-03-27T18:59:20.354Z,79.00
2019-03-27T19:01:21.654Z,78.50
2019-03-27T19:03:23.013Z,78.20
2019-03-27T19:05:24.218Z,78.60
2019-03-27T19:07:25.390Z,78.30
2019-03-27T19:09:26.655Z,78.70
2019-03-27T19:11:27.930Z,78.40
2019-03-27T19:13:29.185Z,78.80
2019-03-27T19:15:30.334Z,79.00
2019-03-27T19:17:31.517Z,79.50
2019-03-27T19:21:27.631Z,79.20
2019-03-27T19:23:28.787Z,79.70
2019-03-27T19:25:29.930Z,79.80
2019-03-27T19:27:31.174Z,80.10
2019-03-27T19:29:32.685Z,80.10
2019-03-27T19:31:33.837Z,80.10
2019-03-27T19:33:35.117Z,80.10
2019-03-27T19:35:36.289Z,80.40
2019-03-27T19:37:37.696Z,80.40
2019-03-27T19:39:39.194Z,80.60
2019-03-27T19:41:40.518Z,80.70
2019-03-27T19:43:41.891Z,80.60
2019-03-27T19:45:43.138Z,80.70
2019-03-27T19:47:44.285Z,81.20
2019-03-27T19:49:45.440Z,81.00
2019-03-27T19:51:46.630Z,81.40
2019-03-27T19:53:47.835Z,81.10
2019-03-27T19:55:48.978Z,81.40
2019-03-27T19:57:51.503Z,81.60
2019-03-27T19:59:52.784Z,81.70
2019-03-27T20:01:54.027Z,82.40
2019-03-27T20:03:55.178Z,82.70
2019-03-27T20:05:56.364Z,83.00
2019-03-27T20:07:57.644Z,83.40
2019-03-27T20:09:58.862Z,83.30
2019-03-27T20:12:00.048Z,83.00
2019-03-27T20:14:01.207Z,83.20
2019-03-27T20:16:02.458Z,83.60
2019-03-27T20:18:04.236Z,83.50
2019-03-27T20:20:07.411Z,83.60
2019-03-27T20:22:08.947Z,83.70
2019-03-27T20:24:10.484Z,83.80
2019-03-27T20:26:11.631Z,83.70
2019-03-27T20:28:12.906Z,83.60
2019-03-27T20:30:16.793Z,84.00
2019-03-27T20:32:17.950Z,84.10
2019-03-27T20:34:19.187Z,84.10
2019-03-27T20:36:20.754Z,84.20
2019-03-27T20:38:21.935Z,84.50
2019-03-27T20:40:23.184Z,84.50
2019-03-27T20:42:24.329Z,84.80
2019-03-27T20:44:25.522Z,84.90
2019-03-27T20:46:29.247Z,85.20
2019-03-27T20:48:29.738Z,85.40
2019-03-27T20:50:32.358Z,85.80
2019-03-27T20:52:33.639Z,85.80
2019-03-27T20:54:34.904Z,86.10
2019-03-27T20:56:36.142Z,86.40
2019-03-27T20:58:37.294Z,86.70
2019-03-27T21:00:38.569Z,86.90
2019-03-27T21:02:39.709Z,87.50
2019-03-27T21:04:40.879Z,87.60
2019-03-27T21:06:42.035Z,88.60
2019-03-27T21:08:43.347Z,89.00
2019-03-27T21:10:44.611Z,89.30
2019-03-27T21:12:45.755Z,89.80
2019-03-27T21:14:46.982Z,90.00
2019-03-27T21:16:48.218Z,90.10
2019-03-27T21:18:49.376Z,90.30
2019-03-27T21:20:50.535Z,90.40
2019-03-27T21:22:51.693Z,90.40
2019-03-27T21:24:52.850Z,90.60
2019-03-27T21:26:54.110Z,90.70
2019-03-27T21:28:55.292Z,90.40
2019-03-27T21:30:56.439Z,90.40
2019-03-27T21:32:57.874Z,90.00
2019-03-27T21:34:59.036Z,90.40
2019-03-27T21:37:00.194Z,90.40
2019-03-27T21:39:01.450Z,90.70
2019-03-27T21:41:02.802Z,90.60
2019-03-27T21:43:03.955Z,91.00
2019-03-27T21:45:07.517Z,91.20
2019-03-27T21:47:08.670Z,91.40
2019-03-27T21:49:09.830Z,91.60
2019-03-27T21:51:11.110Z,91.30
2019-03-27T21:53:12.258Z,91.60
2019-03-27T21:55:22.365Z,91.40
2019-03-27T21:57:16.896Z,91.70
2019-03-27T21:59:18.060Z,91.60
2019-03-27T22:01:19.210Z,91.00
2019-03-27T22:03:20.658Z,91.00
2019-03-27T22:05:21.818Z,91.30
2019-03-27T22:07:22.962Z,91.80
2019-03-27T22:09:24.631Z,91.60
2019-03-27T22:11:25.657Z,91.90
2019-03-27T22:13:27.201Z,91.50
2019-03-27T22:15:28.363Z,91.50
2019-03-27T22:17:29.568Z,91.60
2019-03-27T22:19:30.726Z,91.90
2019-03-27T22:21:31.910Z,91.70
2019-03-27T22:23:33.069Z,91.60
2019-03-27T22:25:36.117Z,91.80
2019-03-27T22:27:37.297Z,91.80
2019-03-27T22:29:38.453Z,91.80
2019-03-27T22:31:39.606Z,91.90
2019-03-27T22:33:41.158Z,91.90
2019-03-27T22:35:42.395Z,92.00
2019-03-27T22:37:43.542Z,91.90
2019-03-27T22:39:44.701Z,92.20
2019-03-27T22:41:45.847Z,91.70
2019-03-27T22:43:47.009Z,91.70
2019-03-27T22:45:48.163Z,91.70
2019-03-27T22:47:49.319Z,91.70
2019-03-27T22:49:50.486Z,91.70
2019-03-27T22:51:51.631Z,91.60
2019-03-27T22:53:52.853Z,91.70
2019-03-27T22:55:54.014Z,92.00
2019-03-27T22:57:55.158Z,92.10
2019-03-27T22:59:56.323Z,92.00
2019-03-27T23:01:57.470Z,92.20
2019-03-27T23:03:58.619Z,92.20
2019-03-27T23:05:59.967Z,92.40
2019-03-27T23:08:01.348Z,92.50
2019-03-27T23:10:04.812Z,93.10
2019-03-27T23:12:06.055Z,92.40
2019-03-27T23:14:07.411Z,92.60
2019-03-27T23:16:08.617Z,92.70
2019-03-27T23:18:10.235Z,92.20
2019-03-27T23:20:11.512Z,92.60
2019-03-27T23:22:13.344Z,92.80
2019-03-27T23:24:14.498Z,93.10
2019-03-27T23:26:15.666Z,93.20
2019-03-27T23:28:16.820Z,93.40
2019-03-27T23:30:17.986Z,93.50
2019-03-27T23:32:19.206Z,93.50
2019-03-27T23:34:20.368Z,93.60
2019-03-27T23:36:21.514Z,93.70
2019-03-27T23:38:22.658Z,93.80
2019-03-27T23:40:23.882Z,93.80
2019-03-27T23:42:25.035Z,93.80
2019-03-27T23:44:26.258Z,93.50
2019-03-27T23:46:27.402Z,93.10
2019-03-27T23:48:28.630Z,93.20
2019-03-27T23:50:29.790Z,93.00
2019-03-27T23:52:30.926Z,93.50
2019-03-27T23:54:32.094Z,93.50
2019-03-27T23:56:33.238Z,93.60
2019-03-27T23:58:34.389Z,93.70
